Terminal Aerodrome Forecast
Issued by NWS Cleveland, OH

Home | Current Version | Previous Version | Graphics & Text | Print | Product List | Glossary On
Versions: 1 2 3 4 5 6 7 8 9 10 11 12 13 14 15 16 17 18 19 20 21 22 23
000
FTUS41 KCLE 311736
TAFYNG
TAF
KYNG 311736Z 3118/0118 07010KT P6SM VCTS SCT006 OVC035CB
      TEMPO 3118/3122 1 1/2SM SHRA BKN006 OVC015
     FM312200 01012G20KT P6SM OVC006
     FM010300 36008KT 6SM BR OVC003
     FM011600 35008KT P6SM OVC008=

USA.gov is the U.S. government's official web portal to all federal, state and local government web resources and services.